createdAt,value
2019-03-04T20:15:30.450Z,23.50
2019-03-04T20:53:47.689Z,25.20
2019-03-04T20:56:14.703Z,24.90
2019-03-04T20:58:42.279Z,24.50
2019-03-04T21:01:09.493Z,24.70
2019-03-04T21:03:38.656Z,24.70
2019-03-04T21:06:25.663Z,24.60
2019-03-04T21:08:53.044Z,24.50
2019-03-04T21:11:20.373Z,24.40
2019-03-04T21:13:48.144Z,24.30
2019-03-04T21:16:15.559Z,24.20
2019-03-04T21:18:42.961Z,24.20
2019-03-04T21:21:10.814Z,24.00
2019-03-04T21:23:40.379Z,24.00
2019-03-04T21:26:17.089Z,23.90
2019-03-04T21:29:34.103Z,23.90
2019-03-04T21:32:43.303Z,23.90
2019-03-04T21:36:05.420Z,23.90
2019-03-04T21:38:33.582Z,24.00
2019-03-04T21:41:38.196Z,24.30
2019-03-04T21:44:22.469Z,24.20
2019-03-04T21:47:33.207Z,24.10
2019-03-04T21:50:01.249Z,24.10
2019-03-04T21:53:11.359Z,24.10
2019-03-04T21:56:26.604Z,24.10
2019-03-04T21:58:54.837Z,24.20
2019-03-04T22:01:26.790Z,24.30
2019-03-04T22:03:54.471Z,24.30
2019-03-04T22:06:22.596Z,24.40
2019-03-04T22:09:10.640Z,24.20
2019-03-04T22:11:19.187Z,24.10
2019-03-04T22:13:46.783Z,24.10
2019-03-04T22:16:14.196Z,24.10
2019-03-04T22:18:41.849Z,24.10
2019-03-04T22:21:16.524Z,24.10
2019-03-04T22:23:38.790Z,24.10
2019-03-04T22:28:41.534Z,23.90
2019-03-04T22:31:09.187Z,23.90
2019-03-04T22:33:36.502Z,23.90
2019-03-04T22:36:04.541Z,23.80
2019-03-04T22:38:31.859Z,23.70
2019-03-04T22:40:59.239Z,23.70
2019-03-04T22:43:26.574Z,23.70
2019-03-04T22:45:54.281Z,23.90
2019-03-04T22:48:21.593Z,23.80
2019-03-04T22:50:49.510Z,23.70
2019-03-04T22:53:18.158Z,23.50
2019-03-04T22:55:45.590Z,23.60
2019-03-04T22:58:13.327Z,23.60
2019-03-04T23:01:35.059Z,23.40
2019-03-04T23:04:27.052Z,23.20
2019-03-04T23:07:27.387Z,23.10
2019-03-04T23:10:10.714Z,23.00
2019-03-04T23:15:32.423Z,22.90
2019-03-04T23:17:59.698Z,22.90
2019-03-04T23:20:27.094Z,23.00
2019-03-04T23:22:54.376Z,22.70
2019-03-04T23:25:21.672Z,22.60
2019-03-04T23:27:49.360Z,22.70
2019-03-04T23:30:16.652Z,22.70
2019-03-04T23:32:43.939Z,22.60
2019-03-04T23:35:11.317Z,22.70
2019-03-04T23:37:38.586Z,22.70
2019-03-04T23:40:07.109Z,22.60
2019-03-04T23:42:34.488Z,22.70
2019-03-04T23:45:21.752Z,22.70
2019-03-04T23:47:49.061Z,22.90
2019-03-04T23:50:20.980Z,22.80
2019-03-04T23:52:48.618Z,22.80
2019-03-04T23:55:16.084Z,22.80
2019-03-04T23:57:43.370Z,22.80
